createdAt,value
2016-04-20T08:27:34.203Z,85.39
2016-04-20T08:28:34.191Z,84.15
2016-04-20T08:29:37.115Z,83.04
2016-04-20T08:30:34.164Z,83.42
2016-04-20T08:31:34.167Z,83.33
2016-04-20T08:32:34.185Z,83.42
2016-04-20T08:33:39.297Z,82.56
2016-04-20T08:34:34.144Z,84.28
2016-04-20T08:35:34.099Z,83.81
2016-04-20T08:36:34.774Z,82.56
2016-04-20T08:37:34.074Z,83.61
2016-04-20T08:38:34.060Z,83.71
2016-04-20T08:39:34.048Z,84.25
2016-04-20T08:40:34.035Z,84.53
2016-04-20T08:41:34.023Z,83.52
2016-04-20T08:42:33.993Z,82.94
2016-04-20T08:43:33.981Z,82.56
2016-04-20T08:44:33.984Z,83.04
2016-04-20T08:45:33.955Z,82.37
2016-04-20T08:46:33.957Z,81.74
2016-04-20T08:47:33.929Z,81.54
2016-04-20T08:48:33.917Z,81.45
2016-04-20T08:49:33.904Z,82.37
2016-04-20T08:50:33.890Z,82.18
2016-04-20T08:51:33.878Z,81.51
2016-04-20T08:52:33.864Z,81.51
2016-04-20T08:53:33.851Z,81.26
2016-04-20T08:54:33.839Z,80.68
2016-04-20T08:55:33.810Z,81.12
2016-04-20T08:56:33.813Z,81.35
2016-04-20T08:57:33.799Z,80.87
2016-04-20T08:58:33.787Z,81.54
2016-04-20T08:59:33.774Z,81.16
2016-04-20T09:00:33.761Z,80.4
2016-04-20T09:01:33.748Z,81.22
2016-04-20T09:02:33.735Z,80.45
2016-04-20T09:03:33.738Z,80.49
2016-04-20T09:04:33.724Z,81.26
2016-04-20T09:05:33.696Z,80.49
2016-04-20T09:06:33.682Z,80.87
2016-04-20T09:07:33.686Z,80.55
2016-04-20T09:08:33.673Z,80.64
2016-04-20T09:09:33.644Z,80.93
2016-04-20T09:10:33.663Z,80.74
2016-04-20T09:11:33.619Z,81.02
2016-04-20T09:12:33.637Z,80.93
2016-04-20T09:13:33.593Z,80.64
2016-04-20T09:14:33.580Z,80.3
2016-04-20T09:15:33.567Z,79.91
2016-04-20T09:16:33.554Z,78.96
2016-04-20T09:17:33.540Z,79.14
2016-04-20T09:18:33.528Z,79.05
2016-04-20T09:19:33.515Z,78.77
2016-04-20T09:20:33.503Z,78.47
2016-04-20T09:21:33.364Z,78.19
2016-04-20T09:22:33.428Z,78
2016-04-20T09:23:33.556Z,77.75
2016-04-20T09:24:33.450Z,77.26
2016-04-20T09:25:33.436Z,76.88
2016-04-20T09:26:33.424Z,76.59
2016-04-20T09:27:33.426Z,76.21
2016-04-20T09:28:33.398Z,76.02
2016-04-20T09:29:33.401Z,75.45
2016-04-20T09:30:33.372Z,75.1
2016-04-20T09:31:33.359Z,74.23
2016-04-20T09:32:33.346Z,74.04
2016-04-20T09:33:33.332Z,74.23
2016-04-20T09:34:33.335Z,74.33
2016-04-20T09:35:33.307Z,73.94
2016-04-20T09:36:33.309Z,73.85
2016-04-20T09:37:33.281Z,73.85
2016-04-20T09:38:33.267Z,73.94
2016-04-20T09:39:33.256Z,73.75
2016-04-20T09:40:33.242Z,73.75
2016-04-20T09:41:33.245Z,73.66
2016-04-20T09:42:33.467Z,73.75
2016-04-20T09:43:33.219Z,73.91
2016-04-20T09:44:33.206Z,73.91
2016-04-20T09:45:33.177Z,73.18
2016-04-20T09:46:33.180Z,72.5
2016-04-20T09:47:33.167Z,72.6
2016-04-20T09:48:33.155Z,72.12
2016-04-20T09:49:33.142Z,72.41
2016-04-20T09:50:33.128Z,71.64
2016-04-20T09:51:33.116Z,71.93
2016-04-20T09:52:33.102Z,71.64
2016-04-20T09:53:33.105Z,70.23
2016-04-20T09:54:33.093Z,71.67
2016-04-20T09:55:33.080Z,71.55
2016-04-20T09:56:33.066Z,71.16
2016-04-20T09:57:33.054Z,72.12
2016-04-20T09:58:33.025Z,71.73
2016-04-20T09:59:33.012Z,70.97
2016-04-20T10:00:33.015Z,71.58
2016-04-20T10:01:32.986Z,70.97
2016-04-20T10:02:32.973Z,71.25
2016-04-20T10:03:32.976Z,71.55
2016-04-20T10:04:32.947Z,71.31
2016-04-20T10:05:32.950Z,71.06
2016-04-20T10:06:32.937Z,70.49
2016-04-20T10:07:32.923Z,69.72
2016-04-20T10:08:32.911Z,69.62
2016-04-20T10:09:32.898Z,69.24
2016-04-20T10:10:33.073Z,69.81
2016-04-20T10:11:32.935Z,69.72
2016-04-20T10:12:32.875Z,70.01
2016-04-20T10:13:32.847Z,69.91
2016-04-20T10:14:32.834Z,69.43
2016-04-20T10:15:32.821Z,68.31
2016-04-20T10:16:32.823Z,68.51
2016-04-20T10:17:32.811Z,68.51
2016-04-20T10:18:32.798Z,68.98
2016-04-20T10:19:32.769Z,70.1
2016-04-20T10:20:32.772Z,70.1
2016-04-20T10:21:32.759Z,69.91
2016-04-20T10:22:32.746Z,69.81
2016-04-20T10:23:32.749Z,69.05
2016-04-20T10:24:32.720Z,69.81
2016-04-20T10:25:32.722Z,69.53
2016-04-20T10:26:32.694Z,69.43
2016-04-20T10:27:32.681Z,68.6
2016-04-20T10:28:32.684Z,67.54
2016-04-20T10:29:32.655Z,68.31
2016-04-20T10:30:32.643Z,67.35
2016-04-20T10:31:32.629Z,67.07
2016-04-20T10:32:32.632Z,66.87
2016-04-20T10:33:32.619Z,66.1
2016-04-20T10:34:32.607Z,65.46
2016-04-20T10:35:32.610Z,66.58
2016-04-20T10:36:32.596Z,66.58
2016-04-20T10:37:32.598Z,66.1
2016-04-20T10:38:34.086Z,65.17
2016-04-20T10:39:32.542Z,66.1
2016-04-20T10:40:32.544Z,66.14
2016-04-20T10:41:32.516Z,65.14
2016-04-20T10:42:32.534Z,65.46
2016-04-20T10:43:32.506Z,66.2
2016-04-20T10:44:32.492Z,65.53
2016-04-20T10:45:32.495Z,65.46
2016-04-20T10:46:32.498Z,65.66
2016-04-20T10:47:32.439Z,65.17
2016-04-20T10:48:32.441Z,63.92
2016-04-20T10:49:32.444Z,63.67
2016-04-20T10:50:32.414Z,63.67
2016-04-20T10:51:32.417Z,63.95
2016-04-20T10:52:32.405Z,63.86
2016-04-20T10:53:32.376Z,63.6
2016-04-20T10:54:32.379Z,62.32
2016-04-20T10:55:32.366Z,60.91
2016-04-20T10:56:32.369Z,60.07
2016-04-20T10:57:32.340Z,59.11
2016-04-20T10:58:32.327Z,59.72
2016-04-20T10:59:32.313Z,59.62
2016-04-20T11:00:32.316Z,58.95
2016-04-20T11:01:32.366Z,60.39
2016-04-20T11:02:32.291Z,61.04
2016-04-20T11:03:32.279Z,61
2016-04-20T11:04:32.265Z,61.26
2016-04-20T11:05:32.268Z,61.94
2016-04-20T11:06:32.254Z,60.85
2016-04-20T11:07:32.242Z,59.05
2016-04-20T11:08:32.229Z,56.51
2016-04-20T11:09:32.232Z,53.34
2016-04-20T11:10:32.422Z,52.59
2016-04-20T11:11:32.221Z,54.24
2016-04-20T11:12:32.193Z,56.79
2016-04-20T11:13:32.181Z,56.44
2016-04-20T11:14:35.229Z,57.21
2016-04-20T11:15:32.186Z,58.65
2016-04-20T11:16:32.156Z,56.7
2016-04-20T11:17:32.159Z,53.13
2016-04-20T11:18:32.147Z,51.32
2016-04-20T11:19:32.134Z,53.01
2016-04-20T11:20:32.121Z,53.44
2016-04-20T11:21:32.123Z,53.53
2016-04-20T11:22:32.017Z,52.59
2016-04-20T11:23:32.441Z,51.82
2016-04-20T11:24:32.085Z,51.05
2016-04-20T11:25:32.103Z,49.39
2016-04-20T11:26:32.090Z,50.07
2016-04-20T11:27:32.077Z,51.1
2016-04-20T11:28:32.063Z,50.81
2016-04-20T11:29:32.066Z,48.69
2016-04-20T11:30:32.054Z,48.27
2016-04-20T11:31:32.041Z,49.19
2016-04-20T11:32:32.044Z,48.88
2016-04-20T11:33:32.031Z,46.9
2016-04-20T11:34:32.049Z,44.91
2016-04-20T11:35:32.036Z,46.87
2016-04-20T11:36:32.023Z,47.43
2016-04-20T11:37:32.026Z,50.04
2016-04-20T11:38:32.029Z,51.89
2016-04-20T11:39:32.032Z,51.87
2016-04-20T11:40:32.003Z,52.31
2016-04-20T11:41:32.006Z,51.51
2016-04-20T11:42:32.008Z,49.24
2016-04-20T11:43:32.011Z,48.03
2016-04-20T11:44:31.997Z,48.9
2016-04-20T11:45:32.001Z,48.23
2016-04-20T11:46:31.987Z,49.99
2016-04-20T11:47:31.974Z,52.07
2016-04-20T11:48:31.978Z,54.33
2016-04-20T11:49:31.995Z,51.99
2016-04-20T11:50:32.092Z,51.56
2016-04-20T11:51:31.970Z,53.78
2016-04-20T11:52:31.972Z,53.51
2016-04-20T11:53:31.959Z,55.18
2016-04-20T11:54:31.947Z,54.16
2016-04-20T11:55:31.933Z,53.48
2016-04-20T11:56:31.952Z,51.39
2016-04-20T11:57:31.923Z,52.21
2016-04-20T11:58:31.941Z,52.95
2016-04-20T11:59:31.914Z,51.99
2016-04-20T12:00:31.994Z,51.34
2016-04-20T12:01:31.903Z,51.73
2016-04-20T12:02:31.999Z,48.93
2016-04-20T12:03:31.892Z,49.17
2016-04-20T12:04:31.895Z,49.58
2016-04-20T12:05:31.899Z,49.07
2016-04-20T12:06:31.885Z,49.32
2016-04-20T12:07:31.888Z,49.8
2016-04-20T12:08:31.874Z,52.97
2016-04-20T12:09:31.877Z,54.24
2016-04-20T12:10:31.864Z,53.47
2016-04-20T12:11:31.867Z,55.68
2016-04-20T12:12:31.855Z,55.18
2016-04-20T12:13:31.842Z,53.17
2016-04-20T12:14:31.845Z,52.43
2016-04-20T12:15:31.831Z,54.82
2016-04-20T12:16:31.817Z,56.16
2016-04-20T12:17:31.821Z,56.79
2016-04-20T12:18:31.824Z,58.78
2016-04-20T12:19:31.811Z,58.65
2016-04-20T12:20:32.079Z,59.3
2016-04-20T12:21:31.800Z,60.46
2016-04-20T12:22:31.787Z,62.16
2016-04-20T12:23:31.790Z,61.16
2016-04-20T12:24:31.792Z,59.75
2016-04-20T12:25:31.780Z,60.65
2016-04-20T12:26:31.766Z,60.04
2016-04-20T12:27:31.769Z,60.65
2016-04-20T12:28:31.757Z,60.84
2016-04-20T12:29:31.744Z,59.23
2016-04-20T12:30:31.730Z,58.88
2016-04-20T12:31:31.734Z,61.07
2016-04-20T12:32:31.720Z,60.62
2016-04-20T12:33:31.723Z,58.82
2016-04-20T12:34:31.694Z,58.65
2016-04-20T12:35:31.682Z,57.43
2016-04-20T12:36:31.685Z,59.04
2016-04-20T12:37:31.672Z,59.72
2016-04-20T12:38:31.674Z,59.91
2016-04-20T12:39:31.662Z,60.39
2016-04-20T12:40:31.852Z,59.11
2016-04-20T12:41:31.636Z,59.88
2016-04-20T12:42:31.623Z,59.3
2016-04-20T12:43:31.625Z,59.07
2016-04-20T12:44:31.612Z,56.82
2016-04-20T12:45:31.599Z,54.57
2016-04-20T12:46:31.602Z,52.79
2016-04-20T12:47:31.605Z,51.85
2016-04-20T12:48:31.607Z,54.72
2016-04-20T12:49:31.564Z,54.28
2016-04-20T12:50:31.566Z,54.21
2016-04-20T12:51:31.569Z,55.56
2016-04-20T12:52:31.556Z,55.44
2016-04-20T12:53:31.542Z,56.98
2016-04-20T12:54:31.530Z,58.3
2016-04-20T12:55:31.548Z,57.12
2016-04-20T12:56:31.520Z,55.73
2016-04-20T12:57:31.522Z,56.81
2016-04-20T12:58:31.509Z,57.05
2016-04-20T12:59:31.497Z,54.09
2016-04-20T13:00:31.483Z,51.82
2016-04-20T13:01:31.485Z,51.39
2016-04-20T13:02:31.504Z,54
2016-04-20T13:03:31.508Z,56.91
2016-04-20T13:04:31.463Z,57.07
2016-04-20T13:05:31.497Z,56.81
2016-04-20T13:06:31.452Z,56.91
2016-04-20T13:07:31.471Z,56.88
2016-04-20T13:08:31.427Z,56.88
2016-04-20T13:09:31.430Z,56.69
2016-04-20T13:10:31.432Z,57.07
2016-04-20T13:11:31.418Z,56.59
2016-04-20T13:12:31.421Z,56.4
2016-04-20T13:13:31.424Z,55.27
2016-04-20T13:14:31.412Z,54.24
2016-04-20T13:15:31.399Z,55.42
2016-04-20T13:16:31.401Z,56.69
2016-04-20T13:17:31.373Z,55.79
2016-04-20T13:18:31.376Z,54.02
2016-04-20T13:19:31.378Z,53.27
2016-04-20T13:20:31.365Z,53.17
2016-04-20T13:21:31.353Z,53.85
2016-04-20T13:22:31.355Z,52.62
2016-04-20T13:23:31.342Z,54.27
2016-04-20T13:24:31.344Z,55.1
2016-04-20T13:25:31.347Z,54.24
2016-04-20T13:26:31.334Z,55.88
2016-04-20T13:27:31.322Z,53.47
2016-04-20T13:28:31.325Z,54.55
2016-04-20T13:29:31.311Z,57.87
2016-04-20T13:30:31.314Z,58.49
2016-04-20T13:31:31.301Z,53.7
2016-04-20T13:32:31.289Z,52.87
2016-04-20T13:33:31.291Z,50.71
2016-04-20T13:34:31.278Z,49.92
2016-04-20T13:35:31.280Z,49.63
2016-04-20T13:36:31.299Z,50.72
2016-04-20T13:37:31.270Z,51.61
2016-04-20T13:38:31.274Z,49.9
2016-04-20T13:39:31.276Z,53.67
2016-04-20T13:40:31.247Z,54.84
2016-04-20T13:41:31.250Z,55.01
2016-04-20T13:42:31.237Z,55.1
2016-04-20T13:43:31.239Z,52.23
2016-04-20T13:44:31.243Z,51.35
2016-04-20T13:45:31.479Z,53.25
2016-04-20T13:46:31.232Z,51.68
2016-04-20T13:47:31.469Z,51.03
2016-04-20T13:48:31.223Z,51.81
2016-04-20T13:49:31.225Z,52.53
2016-04-20T13:50:31.431Z,51.1
2016-04-20T13:51:31.214Z,50.89
2016-04-20T13:52:31.202Z,54.9
2016-04-20T13:53:31.220Z,55.4
2016-04-20T13:54:31.191Z,54.43
2016-04-20T13:55:31.225Z,54.88
2016-04-20T13:56:31.197Z,54.02
2016-04-20T13:57:31.199Z,54.62
2016-04-20T13:58:31.171Z,55.49
2016-04-20T13:59:31.173Z,56.79
2016-04-20T14:00:31.176Z,52.57
2016-04-20T14:01:31.398Z,52.26
2016-04-20T14:02:31.166Z,53.42
2016-04-20T14:03:31.309Z,54.62
2016-04-20T14:04:31.155Z,54.82
2016-04-20T14:05:31.143Z,56.46
2016-04-20T14:06:33.926Z,59.03
2016-04-20T14:07:32.242Z,59.04
2016-04-20T14:08:31.963Z,58.97
2016-04-20T14:09:31.138Z,59.75
2016-04-20T14:10:33.188Z,60.39
2016-04-20T14:11:32.002Z,62.12
2016-04-20T14:12:32.833Z,63.22
2016-04-20T14:13:33.290Z,62.16
2016-04-20T14:14:32.074Z,60.39
2016-04-20T14:15:31.404Z,60.2
2016-04-20T14:16:31.187Z,60.32
2016-04-20T14:17:33.628Z,61.48
2016-04-20T14:18:34.474Z,59.91
2016-04-20T14:19:31.681Z,60.2
2016-04-20T14:20:32.371Z,61.65
2016-04-20T14:21:31.170Z,62.67
2016-04-20T14:22:34.611Z,62.67
2016-04-20T14:23:32.551Z,62.87
2016-04-20T14:24:31.820Z,62.67
2016-04-20T14:25:31.057Z,62.57
2016-04-20T14:26:32.372Z,62.29
2016-04-20T14:27:31.062Z,61.74
2016-04-20T14:28:31.784Z,62.6
2016-04-20T14:29:32.318Z,63.31
2016-04-20T14:30:30.962Z,63.92
2016-04-20T14:31:30.979Z,62.74
2016-04-20T14:32:30.950Z,59.23
2016-04-20T14:33:30.969Z,57.75
2016-04-20T14:34:31.628Z,56.84
2016-04-20T14:35:32.615Z,54.14
2016-04-20T14:36:32.492Z,52.8
2016-04-20T14:37:30.901Z,55.38
2016-04-20T14:38:30.904Z,56.65
2016-04-20T14:39:30.907Z,57.52
2016-04-20T14:40:30.925Z,58.68
2016-04-20T14:41:30.897Z,60.52
2016-04-20T14:42:30.900Z,60
2016-04-20T14:43:30.871Z,60.42
2016-04-20T14:44:30.967Z,62.51
2016-04-20T14:45:30.861Z,65.56
2016-04-20T14:46:30.848Z,63.18
2016-04-20T14:47:30.866Z,60.2
2016-04-20T14:48:30.838Z,58.97
2016-04-20T14:49:30.841Z,56.65
2016-04-20T14:50:30.811Z,57.23
2016-04-20T14:51:30.814Z,55.85
2016-04-20T14:52:30.801Z,51.97
2016-04-20T14:53:30.944Z,54.17
2016-04-20T14:54:30.791Z,57.9
2016-04-20T14:55:30.779Z,55.85
2016-04-20T14:56:30.781Z,49.77
2016-04-20T14:57:30.784Z,48.35
2016-04-20T14:58:30.755Z,48.22
2016-04-20T14:59:30.758Z,49.07
2016-04-20T15:00:30.745Z,53.65
2016-04-20T15:01:30.748Z,56.51
2016-04-20T15:02:30.734Z,56.56
2016-04-20T15:03:30.737Z,53.2
2016-04-20T15:04:30.739Z,54.71
2016-04-20T15:05:30.664Z,56.87
2016-04-20T15:06:30.714Z,58
2016-04-20T15:07:30.732Z,61.8
2016-04-20T15:08:30.704Z,61.74
2016-04-20T15:09:30.707Z,62.87
2016-04-20T15:10:30.694Z,60.77
2016-04-20T15:11:30.697Z,60.58
2016-04-20T15:12:30.683Z,57.53
2016-04-20T15:13:30.764Z,55.01
2016-04-20T15:14:30.657Z,54.58
2016-04-20T15:15:30.660Z,54.77
2016-04-20T15:16:31.772Z,56.77
2016-04-20T15:17:30.649Z,54.43
2016-04-20T15:18:30.636Z,53.55
2016-04-20T15:19:30.624Z,53.55
2016-04-20T15:20:30.611Z,52.97
2016-04-20T15:21:30.644Z,51.73
2016-04-20T15:22:30.616Z,52.82
2016-04-20T15:23:30.604Z,52.45
2016-04-20T15:24:30.590Z,54.32
2016-04-20T15:25:30.577Z,55.9
2016-04-20T15:26:30.580Z,57.71
2016-04-20T15:27:30.567Z,61.44
2016-04-20T15:28:30.602Z,64.12
2016-04-20T15:29:30.588Z,64.76
2016-04-20T15:30:30.576Z,67.07
2016-04-20T15:31:30.546Z,66.65
2016-04-20T15:32:30.549Z,65.91
2016-04-20T15:33:30.631Z,65.88
2016-04-20T15:34:30.601Z,66.39
2016-04-20T15:35:30.542Z,67.42
2016-04-20T15:36:30.549Z,66.42
2016-04-20T15:37:30.505Z,67.42
2016-04-20T15:38:30.492Z,67.42
2016-04-20T15:39:30.494Z,66.36
2016-04-20T15:40:30.483Z,66.27
2016-04-20T15:41:30.469Z,66.65
2016-04-20T15:42:30.456Z,67.71
2016-04-20T15:43:30.444Z,67.77
2016-04-20T15:44:30.447Z,68.15
2016-04-20T15:45:30.417Z,67.58
2016-04-20T15:46:30.436Z,67.48
2016-04-20T15:47:30.408Z,67.86
2016-04-20T15:48:30.411Z,66.65
2016-04-20T15:49:30.397Z,66.74
2016-04-20T15:50:30.385Z,66.17
2016-04-20T15:51:30.683Z,65.53
2016-04-20T15:52:30.343Z,65.72
2016-04-20T15:53:30.346Z,65.5
2016-04-20T15:54:30.332Z,65.78
2016-04-20T15:55:30.319Z,65.88
2016-04-20T15:56:30.321Z,67
2016-04-20T15:57:30.293Z,66.81
2016-04-20T15:58:30.318Z,67.38
2016-04-20T15:59:30.362Z,68.35
2016-04-20T16:00:30.391Z,68.21
2016-04-20T16:01:30.419Z,67.1
2016-04-20T16:02:30.463Z,67.68
2016-04-20T16:03:30.458Z,67.64
2016-04-20T16:04:30.313Z,67.64
2016-04-20T16:06:58.707Z,66.58
2016-04-20T16:07:58.691Z,66.87
2016-04-20T16:08:58.699Z,66.77
2016-04-20T16:09:58.692Z,66.87
2016-04-20T16:10:58.684Z,66.52
2016-04-20T16:11:58.677Z,67.54
2016-04-20T16:12:58.667Z,67.93
2016-04-20T16:13:58.657Z,68.51
2016-04-20T16:14:58.646Z,68.31
2016-04-20T16:15:58.651Z,68.12
2016-04-20T16:16:58.638Z,68.98
2016-04-20T16:17:58.628Z,70.01
2016-04-20T16:18:58.616Z,70.49
2016-04-20T16:19:58.604Z,69.72
2016-04-20T16:20:58.592Z,69.85
2016-04-20T16:21:58.579Z,69.27
2016-04-20T16:22:58.568Z,69.08
2016-04-20T16:23:58.538Z,69.5
2016-04-20T16:24:58.541Z,69.85
2016-04-20T16:25:58.529Z,70.14
2016-04-20T16:26:58.516Z,70.72
2016-04-20T16:27:58.519Z,70.04
2016-04-20T16:28:58.491Z,70.23
2016-04-20T16:29:58.510Z,69.95
2016-04-20T16:30:58.481Z,71.64
2016-04-20T16:31:58.452Z,71.06
2016-04-20T16:32:58.455Z,70.68
2016-04-20T16:33:58.441Z,69.85
2016-04-20T16:34:58.444Z,70.52
2016-04-20T16:35:58.401Z,70.81
2016-04-20T16:36:58.403Z,70.62
2016-04-20T16:37:58.406Z,70.72
2016-04-20T16:38:58.362Z,70.43
2016-04-20T16:39:59.333Z,70.27
2016-04-20T16:40:58.382Z,71.1
2016-04-20T16:41:58.338Z,69.75
2016-04-20T16:42:58.341Z,69.5
2016-04-20T16:43:58.312Z,69.31
2016-04-20T16:44:58.300Z,69.89
2016-04-20T16:45:58.303Z,70.14
2016-04-20T16:46:58.289Z,69.89
2016-04-20T16:47:58.276Z,69.4
2016-04-20T16:48:58.264Z,68.83
2016-04-20T16:49:58.235Z,68.54
2016-04-20T16:50:58.254Z,67.68
2016-04-20T16:51:58.209Z,69.02
2016-04-20T16:52:58.228Z,70.04
2016-04-20T16:53:58.199Z,70.14
2016-04-20T16:54:58.186Z,70.14
2016-04-20T16:55:58.173Z,70.37
2016-04-20T16:56:58.160Z,70.33
2016-04-20T16:57:58.163Z,69.95
2016-04-20T16:58:58.134Z,69.31
2016-04-20T16:59:58.122Z,70.65
2016-04-20T17:00:58.108Z,71.1
2016-04-20T17:01:58.096Z,71.29
2016-04-20T17:02:58.082Z,71.1
2016-04-20T17:03:58.085Z,71.1
2016-04-20T17:04:58.072Z,71.06
2016-04-20T17:05:58.044Z,70.43
2016-04-20T17:06:58.046Z,69.27
2016-04-20T17:07:58.033Z,69.6
2016-04-20T17:08:58.021Z,69.89
2016-04-20T17:09:58.023Z,70.07
2016-04-20T17:10:58.041Z,71.58
2016-04-20T17:11:57.982Z,71.55
2016-04-20T17:12:57.969Z,72.31
2016-04-20T17:13:57.206Z,72.5
2016-04-20T17:14:57.959Z,72.22
2016-04-20T17:15:57.930Z,72.31
2016-04-20T17:16:57.933Z,72.31
2016-04-20T17:17:57.904Z,72.99
2016-04-20T17:18:57.891Z,72.6
2016-04-20T17:19:57.878Z,72.12
2016-04-20T17:20:57.881Z,72.02
2016-04-20T17:21:57.868Z,71.67
2016-04-20T17:22:57.840Z,71.83
2016-04-20T17:23:57.826Z,71
2016-04-20T17:24:57.814Z,71.67
2016-04-20T17:25:57.817Z,72.41
2016-04-20T17:26:57.803Z,72.73
2016-04-20T17:27:57.805Z,73.08
2016-04-20T17:28:57.777Z,72.31
2016-04-20T17:29:57.765Z,71.87
2016-04-20T17:30:58.142Z,72.12
2016-04-20T17:32:01.457Z,73.18
2016-04-20T17:32:59.055Z,73.56
2016-04-20T17:33:59.478Z,74.01
2016-04-20T17:35:01.028Z,73.81
2016-04-20T17:36:00.719Z,73.18
2016-04-20T17:37:00.158Z,73.94
2016-04-20T17:37:58.411Z,74.58
2016-04-20T17:38:59.648Z,74.19
2016-04-20T17:39:59.635Z,74.29
2016-04-20T17:41:01.091Z,74.19
2016-04-20T17:42:00.422Z,74.58
2016-04-20T17:42:59.082Z,76.59
2016-04-20T17:43:57.599Z,76.75
2016-04-20T17:44:57.587Z,75.89
2016-04-20T17:45:57.558Z,75.79
2016-04-20T17:46:57.545Z,75.92
2016-04-20T17:47:57.532Z,75.79
2016-04-20T17:48:57.534Z,75.82
2016-04-20T17:49:57.554Z,75.63
2016-04-20T17:50:57.353Z,76.12
2016-04-20T17:51:57.512Z,76.31
2016-04-20T17:52:57.467Z,76.46
2016-04-20T17:53:59.835Z,75.98
2016-04-20T17:54:57.448Z,76.27
2016-04-20T17:55:57.465Z,76.27
2016-04-20T17:58:12.893Z,76.75
2016-04-20T17:59:12.879Z,76.84
2016-04-20T18:00:12.711Z,77.42
2016-04-20T18:01:12.838Z,77.23
2016-04-20T18:02:12.825Z,77.51
2016-04-20T18:03:12.812Z,78
2016-04-20T18:04:12.814Z,77.61
2016-04-20T18:05:12.787Z,77.61
2016-04-20T18:06:12.773Z,77.61
2016-04-20T18:07:12.775Z,78.57
2016-04-20T18:08:12.745Z,78.67
2016-04-20T18:09:12.749Z,78.57
2016-04-20T18:10:12.720Z,78.96
2016-04-20T18:11:12.706Z,78.67
2016-04-20T18:12:12.695Z,79.24
2016-04-20T18:13:12.681Z,78.92
2016-04-20T18:14:12.668Z,79.49
2016-04-20T18:15:12.655Z,78.82
2016-04-20T18:16:12.642Z,78.67
2016-04-20T18:17:12.618Z,79.21
2016-04-20T18:18:12.605Z,79.01
2016-04-20T18:19:12.592Z,79.21
2016-04-20T18:20:12.578Z,79.88
2016-04-20T18:21:12.566Z,79.88
2016-04-20T18:22:12.558Z,79.78
2016-04-20T18:23:12.545Z,80.16
2016-04-20T18:24:12.532Z,79.97
2016-04-20T18:25:12.519Z,80.64
2016-04-20T18:26:12.505Z,80.45
2016-04-20T18:27:12.494Z,80.07
2016-04-20T18:28:12.496Z,80.74
2016-04-20T18:29:12.467Z,80.83
2016-04-20T18:30:12.439Z,80.55
2016-04-20T18:31:12.425Z,80.93
2016-04-20T18:32:12.428Z,81.31
2016-04-20T18:33:12.416Z,81.41
2016-04-20T18:34:12.402Z,81.6
2016-04-20T18:35:12.374Z,81.79
2016-04-20T18:36:12.377Z,81.6
2016-04-20T18:37:12.349Z,81.6
2016-04-20T18:38:12.351Z,81.7
2016-04-20T18:39:12.338Z,81.6
2016-04-20T18:40:12.310Z,81.22
2016-04-20T18:42:16.784Z,82.18
2016-04-20T18:43:16.740Z,82.08
2016-04-20T18:44:16.882Z,82.42
2016-04-20T18:45:16.792Z,83.29
2016-04-20T18:46:16.825Z,83.29
2016-04-20T18:47:16.735Z,82.81
2016-04-20T18:48:16.784Z,83.09
2016-04-20T18:49:16.881Z,83.48
2016-04-20T18:50:16.758Z,83.48
2016-04-20T18:51:16.698Z,82.9
2016-04-20T18:52:16.653Z,83.38
2016-04-20T18:53:16.657Z,83.67
2016-04-20T18:54:16.675Z,83.58
2016-04-20T18:55:16.631Z,84.25
2016-04-20T18:56:16.603Z,84.15
2016-04-20T18:57:16.589Z,84.82
2016-04-20T18:58:16.561Z,84.25
2016-04-20T18:59:16.564Z,84.53
2016-04-20T19:00:16.566Z,83.76
2016-04-20T19:01:16.523Z,83.58
2016-04-20T19:02:16.509Z,83.48
2016-04-20T19:03:16.480Z,83.86
2016-04-20T19:04:16.468Z,84.05
2016-04-20T19:05:16.455Z,83.86
2016-04-20T19:06:16.442Z,84.44
2016-04-20T19:07:16.430Z,84.34
2016-04-20T19:08:16.415Z,84.53
2016-04-20T19:09:16.402Z,84.63
2016-04-20T19:10:16.390Z,85.01
2016-04-20T19:11:16.377Z,84.91
2016-04-20T19:12:16.364Z,84.82
2016-04-20T19:13:16.352Z,84.63
2016-04-20T19:14:16.338Z,84.63
2016-04-20T19:15:16.341Z,84.53
2016-04-20T19:16:16.297Z,84.63
2016-04-20T19:17:16.299Z,84.72
2016-04-20T19:18:16.286Z,85.01
2016-04-20T19:19:16.273Z,84.82
2016-04-20T19:20:16.261Z,84.91
2016-04-20T19:21:16.232Z,85.11
2016-04-20T19:22:16.298Z,85.21
2016-04-20T19:23:16.206Z,85.58
2016-04-20T19:24:16.193Z,85.49
2016-04-20T19:25:16.195Z,85.49
2016-04-20T19:26:16.167Z,85.97
2016-04-20T19:27:16.155Z,85.93
2016-04-20T19:28:16.142Z,85.49
2016-04-20T19:29:16.128Z,85.58
2016-04-20T19:30:16.116Z,85.97
2016-04-20T19:31:16.087Z,85.97
2016-04-20T19:32:16.089Z,85.21
2016-04-20T19:33:16.078Z,85.11
2016-04-20T19:34:16.049Z,85.11
2016-04-20T19:35:16.051Z,85.3
2016-04-20T19:36:16.022Z,85.49
2016-04-20T19:37:16.010Z,85.3
2016-04-20T19:38:16.012Z,85.49
2016-04-20T19:39:15.984Z,85.68
2016-04-20T19:40:15.971Z,85.78
2016-04-20T19:41:15.943Z,85.58
2016-04-20T19:42:15.930Z,85.58
2016-04-20T19:43:15.948Z,85.3
2016-04-20T19:44:15.904Z,85.35
2016-04-20T19:45:15.890Z,85.3
2016-04-20T19:46:15.877Z,85.11
2016-04-20T19:47:15.880Z,85.39
2016-04-20T19:48:15.852Z,84.82
2016-04-20T19:49:15.839Z,85.11
2016-04-20T19:50:15.826Z,85.49
2016-04-20T19:51:15.813Z,85.3
2016-04-20T19:52:15.815Z,85.58
2016-04-20T19:53:15.787Z,85.35
2016-04-20T19:54:15.773Z,86.12
2016-04-20T19:55:15.761Z,85.93
2016-04-20T19:56:15.733Z,86.02
2016-04-20T19:57:15.720Z,85.93
2016-04-20T19:58:15.722Z,86.02
2016-04-20T19:59:15.725Z,86.12
2016-04-20T20:00:15.681Z,85.74
2016-04-20T20:01:15.684Z,85.93
2016-04-20T20:02:15.639Z,85.83
2016-04-20T20:03:15.658Z,85.93
2016-04-20T20:04:15.629Z,85.93
2016-04-20T20:05:15.617Z,86.41
2016-04-20T20:06:15.603Z,86.69
2016-04-20T20:07:15.591Z,86.6
2016-04-20T20:08:15.577Z,85.93
2016-04-20T20:09:15.564Z,86.12
2016-04-20T20:10:15.551Z,86.88
2016-04-20T20:11:15.523Z,86.6
2016-04-20T20:12:15.527Z,86.88
2016-04-20T20:13:15.512Z,86.6
2016-04-20T20:14:15.499Z,86.41
2016-04-20T20:15:18.534Z,86.69
2016-04-20T20:16:15.458Z,86.5
2016-04-20T20:17:15.430Z,86.21
2016-04-20T20:18:15.417Z,86.6
2016-04-20T20:19:15.404Z,86.69
2016-04-20T20:20:18.407Z,87.08
2016-04-20T20:21:15.378Z,86.88
2016-04-20T20:22:15.390Z,86.6
2016-04-20T20:23:15.354Z,85.93
2016-04-20T20:24:15.373Z,86.41
2016-04-20T20:25:15.328Z,86.41
2016-04-20T20:26:15.300Z,86.69
2016-04-20T20:27:15.302Z,86.79
2016-04-20T20:28:15.290Z,86.41
2016-04-20T20:29:15.261Z,86.31
2016-04-20T20:30:15.247Z,86.45
2016-04-20T20:31:15.501Z,85.74
2016-04-20T20:32:15.222Z,85.88
2016-04-20T20:33:15.210Z,85.74
2016-04-20T20:34:15.196Z,86.07
2016-04-20T20:35:15.183Z,85.78
2016-04-20T20:36:15.171Z,86.31
2016-04-20T20:37:15.157Z,86.21
2016-04-20T20:38:15.145Z,86.12
2016-04-20T20:39:15.132Z,86.79
2016-04-20T20:40:24.118Z,86.12
2016-04-20T20:41:15.121Z,86.6
2016-04-20T20:42:15.109Z,86.5
2016-04-20T20:43:15.064Z,85.93
2016-04-20T20:44:15.051Z,86.41
2016-04-20T20:45:15.038Z,86.21
2016-04-20T20:46:15.040Z,86.64
2016-04-20T20:47:15.013Z,86.6
2016-04-20T20:48:14.984Z,86.69
2016-04-20T20:49:14.986Z,86.79
2016-04-20T20:50:15.006Z,86.69
2016-04-20T20:51:14.961Z,87.17
2016-04-20T20:52:14.947Z,86.6
2016-04-20T20:53:14.934Z,86.31
2016-04-20T20:54:14.907Z,86.6
2016-04-20T20:55:14.894Z,87.08
2016-04-20T20:56:14.881Z,86.6
2016-04-20T20:57:14.867Z,87.08
2016-04-20T20:58:14.855Z,86.98
2016-04-20T20:59:14.825Z,87.17
2016-04-20T21:00:14.829Z,86.79
2016-04-20T21:01:14.800Z,87.17
2016-04-20T21:02:14.804Z,86.98
2016-04-20T21:03:14.790Z,87.17
2016-04-20T21:04:14.779Z,86.88
2016-04-20T21:05:14.765Z,86.88
2016-04-20T21:06:14.581Z,87.46
2016-04-20T21:07:14.723Z,86.98
2016-04-20T21:08:14.711Z,87.37
2016-04-20T21:09:14.697Z,87.37
2016-04-20T21:10:14.684Z,87.17
2016-04-20T21:11:14.657Z,86.98
2016-04-20T21:12:14.658Z,86.88
2016-04-20T21:13:14.630Z,87.17
2016-04-20T21:14:14.633Z,87.17
2016-04-20T21:15:14.605Z,87.27
2016-04-20T21:16:14.592Z,87.17
2016-04-20T21:17:14.578Z,86.5
2016-04-20T21:18:14.566Z,86.6
2016-04-20T21:19:14.553Z,86.41
2016-04-20T21:20:14.540Z,86.6
2016-04-20T21:21:14.511Z,86.31
2016-04-20T21:22:17.513Z,86.31
2016-04-20T21:23:17.501Z,86.12
2016-04-20T21:24:14.472Z,85.93
2016-04-20T21:25:14.460Z,85.93
2016-04-20T21:26:14.446Z,85.93